createdAt,value
2018-08-11T00:00:35.162Z,16.71
2018-08-11T00:01:35.141Z,16.60
2018-08-11T00:02:35.115Z,16.67
2018-08-11T00:03:35.101Z,16.68
2018-08-11T00:04:35.881Z,16.62
2018-08-11T00:05:35.106Z,16.67
2018-08-11T00:06:35.063Z,16.60
2018-08-11T00:07:35.115Z,16.60
2018-08-11T00:08:35.127Z,16.67
2018-08-11T00:09:35.027Z,16.62
2018-08-11T00:10:35.048Z,16.77
2018-08-11T00:11:35.053Z,16.68
2018-08-11T00:12:34.999Z,16.68
2018-08-11T00:13:34.992Z,16.73
2018-08-11T00:14:35.020Z,16.73
2018-08-11T00:15:35.046Z,16.70
2018-08-11T00:16:35.020Z,16.77
2018-08-11T00:17:34.947Z,16.74
2018-08-11T00:18:35.852Z,16.77
2018-08-11T00:19:34.910Z,16.71
2018-08-11T00:20:35.033Z,16.73
2018-08-11T00:21:35.303Z,16.81
2018-08-11T00:22:34.963Z,16.78
2018-08-11T00:23:34.869Z,16.78
2018-08-11T00:24:34.854Z,16.75
2018-08-11T00:25:35.521Z,16.75
2018-08-11T00:26:34.919Z,16.74
2018-08-11T00:27:34.863Z,16.68
2018-08-11T00:28:34.917Z,16.81
2018-08-11T00:29:34.800Z,16.74
2018-08-11T00:30:34.931Z,16.88
2018-08-11T00:31:34.772Z,16.71
2018-08-11T00:32:34.822Z,16.77
2018-08-11T00:33:34.758Z,16.75
2018-08-11T00:34:34.787Z,16.71
2018-08-11T00:35:34.758Z,16.68
2018-08-11T00:36:34.792Z,16.77
2018-08-11T00:37:34.704Z,16.73
2018-08-11T00:38:34.689Z,16.74
2018-08-11T00:39:34.692Z,16.80
2018-08-11T00:40:34.693Z,16.74
2018-08-11T00:41:34.662Z,16.86
2018-08-11T00:42:34.651Z,16.83
2018-08-11T00:43:34.630Z,16.81
2018-08-11T00:44:34.623Z,16.78
2018-08-11T00:45:34.633Z,16.80
2018-08-11T00:46:34.599Z,16.83
2018-08-11T00:47:34.591Z,16.81
2018-08-11T00:48:34.578Z,16.81
2018-08-11T00:49:34.653Z,16.92
2018-08-11T00:50:34.582Z,16.86
2018-08-11T00:51:34.546Z,16.89
2018-08-11T00:52:34.526Z,16.89
2018-08-11T00:53:34.523Z,16.93
2018-08-11T00:54:34.503Z,16.95
2018-08-11T00:55:34.525Z,16.89
2018-08-11T00:56:34.491Z,16.88
2018-08-11T00:57:34.468Z,16.75
2018-08-11T00:58:34.465Z,16.80
2018-08-11T00:59:34.444Z,16.77
2018-08-11T01:00:34.455Z,16.73
2018-08-11T01:01:34.424Z,16.74
2018-08-11T01:02:34.415Z,16.65
2018-08-11T01:03:34.401Z,16.52
2018-08-11T01:04:34.396Z,16.49
2018-08-11T01:05:34.400Z,16.49
2018-08-11T01:06:34.367Z,16.44
2018-08-11T01:07:34.351Z,16.38
2018-08-11T01:08:34.344Z,16.48
2018-08-11T01:09:34.333Z,16.53
2018-08-11T01:10:34.350Z,16.56
2018-08-11T01:11:34.305Z,16.58
2018-08-11T01:12:34.298Z,16.52
2018-08-11T01:13:34.284Z,16.55
2018-08-11T01:14:34.269Z,16.62
2018-08-11T01:15:34.289Z,16.56
2018-08-11T01:16:34.249Z,16.60
2018-08-11T01:17:34.235Z,16.63
2018-08-11T01:18:34.240Z,16.68
2018-08-11T01:19:34.211Z,16.70
2018-08-11T01:20:34.230Z,16.77
2018-08-11T01:21:34.189Z,16.78
2018-08-11T01:22:34.176Z,16.93
2018-08-11T01:23:34.169Z,16.88
2018-08-11T01:24:34.154Z,16.95
2018-08-11T01:25:34.174Z,16.93
2018-08-11T01:26:34.136Z,16.96
2018-08-11T01:27:34.121Z,16.98
2018-08-11T01:28:34.116Z,16.93
2018-08-11T01:29:34.095Z,17.03
2018-08-11T01:30:34.111Z,17.07
2018-08-11T01:31:34.078Z,17.00
2018-08-11T01:32:34.059Z,17.04
2018-08-11T01:33:34.054Z,17.08
2018-08-11T01:34:34.038Z,17.11
2018-08-11T01:35:34.053Z,17.18
2018-08-11T01:36:34.023Z,17.18
2018-08-11T01:37:34.005Z,17.06
2018-08-11T01:38:33.991Z,17.17
2018-08-11T01:39:33.987Z,17.11
2018-08-11T01:40:33.990Z,17.22
2018-08-11T01:41:33.961Z,17.25
2018-08-11T01:42:33.949Z,17.28
2018-08-11T01:43:33.965Z,17.30
2018-08-11T01:44:33.928Z,17.35
2018-08-11T01:45:33.908Z,17.26
2018-08-11T01:46:33.898Z,17.14
2018-08-11T01:47:33.891Z,17.06
2018-08-11T01:48:33.872Z,16.95
2018-08-11T01:49:33.893Z,16.80
2018-08-11T01:50:33.852Z,16.81
2018-08-11T01:51:33.840Z,16.59
2018-08-11T01:52:33.837Z,16.53
2018-08-11T01:53:33.821Z,16.37
2018-08-11T01:54:33.844Z,16.20
2018-08-11T01:55:33.790Z,16.04
2018-08-11T01:56:33.786Z,15.99
2018-08-11T01:57:33.773Z,15.78
2018-08-11T01:58:33.764Z,15.72
2018-08-11T01:59:33.745Z,15.48
2018-08-11T02:00:33.771Z,15.51
2018-08-11T02:01:33.726Z,15.45
2018-08-11T02:02:33.711Z,15.17
2018-08-11T02:03:33.708Z,15.17
2018-08-11T02:04:33.691Z,15.01
2018-08-11T02:05:33.682Z,14.95
2018-08-11T02:06:33.700Z,14.81
2018-08-11T02:07:33.653Z,14.78
2018-08-11T02:08:33.648Z,14.88
2018-08-11T02:09:33.639Z,14.87
2018-08-11T02:10:33.628Z,14.68
2018-08-11T02:11:33.611Z,14.60
2018-08-11T02:12:33.634Z,14.46
2018-08-11T02:13:33.588Z,14.43
2018-08-11T02:14:33.579Z,14.27
2018-08-11T02:15:33.565Z,14.21
2018-08-11T02:16:33.556Z,14.02
2018-08-11T02:17:33.546Z,13.99
2018-08-11T02:18:33.554Z,13.91
2018-08-11T02:19:33.522Z,13.76
2018-08-11T02:20:33.510Z,13.71
2018-08-11T02:21:33.495Z,13.62
2018-08-11T02:22:33.487Z,13.62
2018-08-11T02:23:33.505Z,13.61
2018-08-11T02:24:33.467Z,13.61
2018-08-11T02:25:33.446Z,13.61
2018-08-11T02:26:33.443Z,13.62
2018-08-11T02:27:33.425Z,13.54
2018-08-11T02:28:33.422Z,13.59
2018-08-11T02:29:33.435Z,13.54
2018-08-11T02:30:33.398Z,13.52
2018-08-11T02:31:33.377Z,13.44
2018-08-11T02:32:33.363Z,13.54
2018-08-11T02:33:33.366Z,13.44
2018-08-11T02:34:33.342Z,13.47
2018-08-11T02:35:33.377Z,13.36
2018-08-11T02:36:33.323Z,13.29
2018-08-11T02:37:33.313Z,13.38
2018-08-11T02:38:33.298Z,13.32
2018-08-11T02:39:33.290Z,13.37
2018-08-11T02:40:33.279Z,13.30
2018-08-11T02:41:33.302Z,13.24
2018-08-11T02:42:33.248Z,13.11
2018-08-11T02:43:33.246Z,13.17
2018-08-11T02:44:33.227Z,13.11
2018-08-11T02:45:33.222Z,13.27
2018-08-11T02:46:33.216Z,13.04
2018-08-11T02:47:33.225Z,13.09
2018-08-11T02:48:33.188Z,13.09
2018-08-11T02:49:33.166Z,13.14
2018-08-11T02:50:33.157Z,13.00
2018-08-11T02:51:33.149Z,13.03
2018-08-11T02:52:33.131Z,12.97
2018-08-11T02:53:33.151Z,12.93
2018-08-11T02:54:33.107Z,13.00
2018-08-11T02:55:33.099Z,12.95
2018-08-11T02:56:33.088Z,12.97
2018-08-11T02:57:33.078Z,12.95
2018-08-11T02:58:33.096Z,12.95
2018-08-11T02:59:33.055Z,12.85
2018-08-11T03:00:33.049Z,12.99
2018-08-11T03:01:33.027Z,12.93
2018-08-11T03:02:33.061Z,12.88
2018-08-11T03:03:33.009Z,12.81
2018-08-11T03:04:33.057Z,12.96
2018-08-11T03:05:32.989Z,12.92
2018-08-11T03:06:32.976Z,12.92
2018-08-11T03:07:32.972Z,12.89
2018-08-11T03:08:32.954Z,12.93
2018-08-11T03:09:32.958Z,12.89
2018-08-11T03:10:32.925Z,12.87
2018-08-11T03:11:32.909Z,12.87
2018-08-11T03:12:32.911Z,12.93
2018-08-11T03:13:32.896Z,12.92
2018-08-11T03:14:32.908Z,12.85
2018-08-11T03:15:32.873Z,12.87
2018-08-11T03:16:32.854Z,12.85
2018-08-11T03:17:32.851Z,12.95
2018-08-11T03:18:32.829Z,12.97
2018-08-11T03:19:32.831Z,12.84
2018-08-11T03:20:32.839Z,13.04
2018-08-11T03:21:32.795Z,13.03
2018-08-11T03:22:32.792Z,13.02
2018-08-11T03:23:32.773Z,12.95
2018-08-11T03:24:32.767Z,13.00
2018-08-11T03:25:32.779Z,13.06
2018-08-11T03:26:32.742Z,13.00
2018-08-11T03:27:32.733Z,13.04
2018-08-11T03:28:32.716Z,13.11
2018-08-11T03:29:32.708Z,12.95
2018-08-11T03:30:32.731Z,13.00
2018-08-11T03:31:32.680Z,13.03
2018-08-11T03:32:32.676Z,13.00
2018-08-11T03:33:32.654Z,13.03
2018-08-11T03:34:32.668Z,12.99
2018-08-11T03:35:32.632Z,12.99
2018-08-11T03:36:32.643Z,13.07
2018-08-11T03:37:32.616Z,12.96
2018-08-11T03:38:32.596Z,12.93
2018-08-11T03:39:32.592Z,12.92
2018-08-11T03:40:32.579Z,13.00
2018-08-11T03:41:32.598Z,12.97
2018-08-11T03:42:32.555Z,12.97
2018-08-11T03:43:32.542Z,12.96
2018-08-11T03:44:32.526Z,12.92
2018-08-11T03:45:32.528Z,12.87
2018-08-11T03:46:32.507Z,12.89
2018-08-11T03:47:32.520Z,12.92
2018-08-11T03:48:32.485Z,12.88
2018-08-11T03:49:32.467Z,12.82
2018-08-11T03:50:32.459Z,12.81
2018-08-11T03:51:32.481Z,12.67
2018-08-11T03:52:32.500Z,12.75
2018-08-11T03:53:32.422Z,12.75
2018-08-11T03:54:32.409Z,12.79
2018-08-11T03:55:32.399Z,12.63
2018-08-11T03:56:32.390Z,12.62
2018-08-11T03:57:32.396Z,12.71
2018-08-11T03:58:32.357Z,12.59
2018-08-11T03:59:32.355Z,12.63
2018-08-11T04:00:32.344Z,12.69
2018-08-11T04:01:32.338Z,12.63
2018-08-11T04:02:32.352Z,12.59
2018-08-11T04:03:32.300Z,12.63
2018-08-11T04:04:32.297Z,12.52
2018-08-11T04:05:32.275Z,12.56
2018-08-11T04:06:32.309Z,12.59
2018-08-11T04:07:32.256Z,12.52
2018-08-11T04:08:32.265Z,12.49
2018-08-11T04:09:32.236Z,12.54
2018-08-11T04:10:32.221Z,12.48
2018-08-11T04:11:32.206Z,12.42
2018-08-11T04:12:32.195Z,12.46
2018-08-11T04:13:32.222Z,12.39
2018-08-11T04:14:32.177Z,12.45
2018-08-11T04:15:32.161Z,12.38
2018-08-11T04:16:32.142Z,12.27
2018-08-11T04:17:32.144Z,12.38
2018-08-11T04:18:32.123Z,12.21
2018-08-11T04:19:32.150Z,12.27
2018-08-11T04:20:32.096Z,12.16
2018-08-11T04:21:32.092Z,12.34
2018-08-11T04:22:32.072Z,12.31
2018-08-11T04:23:32.069Z,12.31
2018-08-11T04:24:32.059Z,12.30
2018-08-11T04:25:32.061Z,12.30
2018-08-11T04:26:32.035Z,12.31
2018-08-11T04:27:32.012Z,12.37
2018-08-11T04:28:32.009Z,12.29
2018-08-11T04:29:31.992Z,12.30
2018-08-11T04:30:32.007Z,12.34
2018-08-11T04:31:31.969Z,12.24
2018-08-11T04:32:31.955Z,12.45
2018-08-11T04:33:31.945Z,12.41
2018-08-11T04:34:31.942Z,12.31
2018-08-11T04:35:31.947Z,12.33
2018-08-11T04:36:31.948Z,12.38
2018-08-11T04:37:31.894Z,12.33
2018-08-11T04:38:31.894Z,12.44
2018-08-11T04:39:31.869Z,12.42
2018-08-11T04:40:31.860Z,12.46
2018-08-11T04:41:31.860Z,12.39
2018-08-11T04:42:31.857Z,12.37
2018-08-11T04:43:31.833Z,12.37
2018-08-11T04:44:31.814Z,12.44
2018-08-11T04:45:31.808Z,12.44
2018-08-11T04:46:31.792Z,12.41
2018-08-11T04:47:31.801Z,12.44
2018-08-11T04:48:31.772Z,12.44
2018-08-11T04:49:31.763Z,12.48
2018-08-11T04:50:31.747Z,12.46
2018-08-11T04:51:31.733Z,12.54
2018-08-11T04:52:31.757Z,12.48
2018-08-11T04:53:31.711Z,12.48
2018-08-11T04:54:31.701Z,12.48
2018-08-11T04:55:31.686Z,12.57
2018-08-11T04:56:31.675Z,12.62
2018-08-11T04:57:31.668Z,12.57
2018-08-11T04:58:31.682Z,12.69
2018-08-11T04:59:31.655Z,12.75
2018-08-11T05:00:31.629Z,12.62
2018-08-11T05:01:31.620Z,12.74
2018-08-11T05:02:31.612Z,12.74
2018-08-11T05:03:31.591Z,12.77
2018-08-11T05:04:31.607Z,12.81
2018-08-11T05:05:31.577Z,12.74
2018-08-11T05:06:31.563Z,12.78
2018-08-11T05:07:31.549Z,12.79
2018-08-11T05:08:31.565Z,12.81
2018-08-11T05:09:31.545Z,12.82
2018-08-11T05:10:31.517Z,12.82
2018-08-11T05:11:31.503Z,12.81
2018-08-11T05:12:31.496Z,12.87
2018-08-11T05:13:31.477Z,12.85
2018-08-11T05:14:31.488Z,13.02
2018-08-11T05:15:31.461Z,12.95
2018-08-11T05:16:31.448Z,12.92
2018-08-11T05:17:31.435Z,12.87
2018-08-11T05:18:31.459Z,12.85
2018-08-11T05:19:31.413Z,13.02
2018-08-11T05:20:31.408Z,12.95
2018-08-11T05:21:31.385Z,12.97
2018-08-11T05:22:31.382Z,12.95
2018-08-11T05:23:31.362Z,12.97
2018-08-11T05:24:31.387Z,13.07
2018-08-11T05:25:31.343Z,13.09
2018-08-11T05:26:31.335Z,13.09
2018-08-11T05:27:31.334Z,13.07
2018-08-11T05:28:31.305Z,13.06
2018-08-11T05:29:31.327Z,13.07
2018-08-11T05:30:31.289Z,13.11
2018-08-11T05:31:31.275Z,13.21
2018-08-11T05:32:31.269Z,13.09
2018-08-11T05:33:31.256Z,13.04
2018-08-11T05:34:31.269Z,13.21
2018-08-11T05:35:31.224Z,13.32
2018-08-11T05:36:31.226Z,13.18
2018-08-11T05:37:31.205Z,13.29
2018-08-11T05:38:31.196Z,13.29
2018-08-11T05:39:31.206Z,13.33
2018-08-11T05:40:31.168Z,13.40
2018-08-11T05:41:31.195Z,13.36
2018-08-11T05:42:31.148Z,13.38
2018-08-11T05:43:31.143Z,13.30
2018-08-11T05:44:31.153Z,13.41
2018-08-11T05:45:31.111Z,13.36
2018-08-11T05:46:31.108Z,13.41
2018-08-11T05:47:31.093Z,13.46
2018-08-11T05:48:31.092Z,13.49
2018-08-11T05:49:31.099Z,13.40
2018-08-11T05:50:31.060Z,13.58
2018-08-11T05:51:31.045Z,13.51
2018-08-11T05:52:31.033Z,13.58
2018-08-11T05:53:31.027Z,13.69
2018-08-11T05:54:31.017Z,13.61
2018-08-11T05:55:31.018Z,13.69
2018-08-11T05:56:30.987Z,13.67
2018-08-11T05:57:30.974Z,13.74
2018-08-11T05:58:30.965Z,13.70
2018-08-11T05:59:30.955Z,13.83
2018-08-11T06:00:30.977Z,13.84
2018-08-11T06:01:30.928Z,13.81
2018-08-11T06:02:30.920Z,13.81
2018-08-11T06:03:30.912Z,13.88
2018-08-11T06:04:30.901Z,13.92
2018-08-11T06:05:30.878Z,13.95
2018-08-11T06:06:30.916Z,13.92
2018-08-11T06:07:30.855Z,13.92
2018-08-11T06:08:30.843Z,13.92
2018-08-11T06:09:30.842Z,13.96
2018-08-11T06:10:30.872Z,14.01
2018-08-11T06:11:30.820Z,14.12
2018-08-11T06:12:30.826Z,14.07
2018-08-11T06:13:30.788Z,14.16
2018-08-11T06:14:30.780Z,14.07
2018-08-11T06:15:30.766Z,14.04
2018-08-11T06:16:30.753Z,14.09
2018-08-11T06:17:30.767Z,14.20
2018-08-11T06:18:30.729Z,14.24
2018-08-11T06:19:30.723Z,14.27
2018-08-11T06:20:30.703Z,14.31
2018-08-11T06:21:30.701Z,14.27
2018-08-11T06:22:30.719Z,14.32
2018-08-11T06:23:30.673Z,14.20
2018-08-11T06:24:30.665Z,14.29
2018-08-11T06:25:30.644Z,14.31
2018-08-11T06:26:30.638Z,14.37
2018-08-11T06:27:30.627Z,14.25
2018-08-11T06:28:30.637Z,14.31
2018-08-11T06:29:30.606Z,14.32
2018-08-11T06:30:30.595Z,14.37
2018-08-11T06:31:30.619Z,14.39
2018-08-11T06:32:30.568Z,14.39
2018-08-11T06:33:30.588Z,14.39
2018-08-11T06:34:30.539Z,14.39
2018-08-11T06:35:30.539Z,14.44
2018-08-11T06:36:30.519Z,14.42
2018-08-11T06:37:30.510Z,14.54
2018-08-11T06:38:30.502Z,14.38
2018-08-11T06:39:30.514Z,14.47
2018-08-11T06:40:30.511Z,14.49
2018-08-11T06:41:30.461Z,14.68
2018-08-11T06:42:30.456Z,14.50
2018-08-11T06:43:30.443Z,14.62
2018-08-11T06:44:30.424Z,14.65
2018-08-11T06:45:30.448Z,14.74
2018-08-11T06:46:30.427Z,14.74
2018-08-11T06:47:30.394Z,14.83
2018-08-11T06:48:30.386Z,14.87
2018-08-11T06:49:30.380Z,14.94
2018-08-11T06:50:30.359Z,14.91
2018-08-11T06:51:30.374Z,15.03
2018-08-11T06:52:30.338Z,15.03
2018-08-11T06:53:30.327Z,15.11
2018-08-11T06:54:30.315Z,15.21
2018-08-11T06:55:30.352Z,15.20
2018-08-11T06:56:30.288Z,15.31
2018-08-11T06:57:30.304Z,15.27
2018-08-11T06:58:30.266Z,15.33
2018-08-11T06:59:30.266Z,15.33
2018-08-11T07:00:30.249Z,15.35
2018-08-11T07:01:30.235Z,15.31
2018-08-11T07:02:30.255Z,15.39
2018-08-11T07:03:30.208Z,15.43
2018-08-11T07:04:30.199Z,15.52
2018-08-11T07:05:30.195Z,15.49
2018-08-11T07:06:30.210Z,15.52
2018-08-11T07:07:30.195Z,15.52
2018-08-11T07:08:30.195Z,15.61
2018-08-11T07:09:30.141Z,15.57
2018-08-11T07:10:30.133Z,15.78
2018-08-11T07:11:30.114Z,15.67
2018-08-11T07:12:30.100Z,15.72
2018-08-11T07:13:30.131Z,15.79
2018-08-11T07:14:30.085Z,15.88
2018-08-11T07:15:30.070Z,16.01
2018-08-11T07:16:30.055Z,16.04
2018-08-11T07:17:30.053Z,16.22
2018-08-11T07:18:30.376Z,16.20
2018-08-11T07:19:30.049Z,16.27
2018-08-11T07:20:30.188Z,16.20
2018-08-11T07:21:29.999Z,16.26
2018-08-11T07:22:29.991Z,16.40
2018-08-11T07:23:29.981Z,16.38
2018-08-11T07:24:29.996Z,16.31
2018-08-11T07:25:29.962Z,16.37
2018-08-11T07:26:29.991Z,16.53
2018-08-11T07:27:29.932Z,16.53
2018-08-11T07:28:29.924Z,16.70
2018-08-11T07:29:30.020Z,16.93
2018-08-11T07:30:29.933Z,16.98
2018-08-11T07:31:30.199Z,17.00
2018-08-11T07:32:29.887Z,17.07
2018-08-11T07:33:29.863Z,17.17
2018-08-11T07:34:29.852Z,17.32
2018-08-11T07:35:29.839Z,17.35
2018-08-11T07:36:29.992Z,17.44
2018-08-11T07:37:29.824Z,17.50
2018-08-11T07:38:29.803Z,17.55
2018-08-11T07:39:29.801Z,17.46
2018-08-11T07:40:29.793Z,17.57
2018-08-11T07:41:29.768Z,17.50
2018-08-11T07:42:29.786Z,17.47
2018-08-11T07:43:29.780Z,17.48
2018-08-11T07:44:29.735Z,17.47
2018-08-11T07:45:29.733Z,17.44
2018-08-11T07:46:29.710Z,17.41
2018-08-11T07:47:30.331Z,17.32
2018-08-11T07:48:29.696Z,17.29
2018-08-11T07:49:29.679Z,17.43
2018-08-11T07:50:29.678Z,17.44
2018-08-11T07:51:29.663Z,17.51
2018-08-11T07:52:29.655Z,17.62
2018-08-11T07:53:29.669Z,17.70
2018-08-11T07:54:29.627Z,17.74
2018-08-11T07:55:29.613Z,17.63
2018-08-11T07:56:29.595Z,17.81
2018-08-11T07:57:29.593Z,17.82
2018-08-11T07:58:29.571Z,17.82
2018-08-11T07:59:29.598Z,17.94
2018-08-11T08:00:29.558Z,17.91
2018-08-11T08:01:29.606Z,18.04
2018-08-11T08:02:29.529Z,18.17
2018-08-11T08:03:29.521Z,18.37
2018-08-11T08:04:29.549Z,18.54
2018-08-11T08:05:29.508Z,18.58
2018-08-11T08:06:29.491Z,18.55
2018-08-11T08:07:29.473Z,18.64
2018-08-11T08:08:29.461Z,18.54
2018-08-11T08:09:29.586Z,18.57
2018-08-11T08:10:29.466Z,18.55
2018-08-11T08:11:29.427Z,18.50
2018-08-11T08:12:29.422Z,18.49
2018-08-11T08:13:29.404Z,18.61
2018-08-11T08:14:29.400Z,18.62
2018-08-11T08:15:29.381Z,18.64
2018-08-11T08:16:29.393Z,18.43
2018-08-11T08:17:29.368Z,18.70
2018-08-11T08:18:29.348Z,18.62
2018-08-11T08:19:29.343Z,18.74
2018-08-11T08:20:29.326Z,18.97
2018-08-11T08:21:29.346Z,19.05
2018-08-11T08:22:29.308Z,19.29
2018-08-11T08:23:29.294Z,19.31
2018-08-11T08:24:29.282Z,19.39
2018-08-11T08:25:29.268Z,19.50
2018-08-11T08:26:29.630Z,19.43
2018-08-11T08:27:29.247Z,19.58
2018-08-11T08:28:29.241Z,19.72
2018-08-11T08:29:29.227Z,19.84
2018-08-11T08:30:29.218Z,19.86
2018-08-11T08:31:29.204Z,19.91
2018-08-11T08:32:29.227Z,19.98
2018-08-11T08:33:29.409Z,20.09
2018-08-11T08:34:29.170Z,20.15
2018-08-11T08:35:29.163Z,20.31
2018-08-11T08:36:29.148Z,20.38
2018-08-11T08:37:29.140Z,20.54
2018-08-11T08:38:29.155Z,20.81
2018-08-11T08:39:29.160Z,20.86
2018-08-11T08:40:29.101Z,20.96
2018-08-11T08:41:29.093Z,21.05
2018-08-11T08:42:29.080Z,21.06
2018-08-11T08:43:29.095Z,21.02
2018-08-11T08:44:29.069Z,21.29
2018-08-11T08:45:29.047Z,21.20
2018-08-11T08:46:29.038Z,21.21
2018-08-11T08:47:29.073Z,21.38
2018-08-11T08:48:29.042Z,21.30
2018-08-11T08:49:29.012Z,21.19
2018-08-11T08:50:29.002Z,21.14
2018-08-11T08:51:28.982Z,21.08
2018-08-11T08:52:28.975Z,21.01
2018-08-11T08:53:28.969Z,21.08
2018-08-11T08:54:28.984Z,21.11
2018-08-11T08:55:28.947Z,21.16
2018-08-11T08:56:28.933Z,21.26
2018-08-11T08:57:28.922Z,21.27
2018-08-11T08:58:28.914Z,21.20
2018-08-11T08:59:28.899Z,21.39
2018-08-11T09:00:29.168Z,21.41
2018-08-11T09:01:28.881Z,21.41
2018-08-11T09:02:28.863Z,21.51
2018-08-11T09:03:28.858Z,21.72
2018-08-11T09:04:28.849Z,21.85
2018-08-11T09:05:28.840Z,22.01
2018-08-11T09:06:28.848Z,22.16
2018-08-11T09:07:28.807Z,22.31
2018-08-11T09:08:28.801Z,22.41
2018-08-11T09:09:28.784Z,22.44
2018-08-11T09:10:28.775Z,22.28
2018-08-11T09:11:28.801Z,22.34
2018-08-11T09:12:28.760Z,22.57
2018-08-11T09:13:28.744Z,22.47
2018-08-11T09:14:28.737Z,22.39
2018-08-11T09:15:28.729Z,22.23
2018-08-11T09:16:28.710Z,22.35
2018-08-11T09:17:28.739Z,22.19
2018-08-11T09:18:28.694Z,22.19
2018-08-11T09:19:28.733Z,22.07
2018-08-11T09:20:28.675Z,22.16
2018-08-11T09:21:28.653Z,22.06
2018-08-11T09:22:28.647Z,21.98
2018-08-11T09:23:28.662Z,21.97
2018-08-11T09:24:28.630Z,21.85
2018-08-11T09:25:28.611Z,21.64
2018-08-11T09:26:28.611Z,21.64
2018-08-11T09:27:28.588Z,21.61
2018-08-11T09:28:28.606Z,21.46
2018-08-11T09:29:29.907Z,21.34
2018-08-11T09:30:28.667Z,21.45
2018-08-11T09:31:28.546Z,21.51
2018-08-11T09:32:28.824Z,21.44
2018-08-11T09:33:28.553Z,21.54
2018-08-11T09:34:28.586Z,21.59
2018-08-11T09:35:28.499Z,21.72
2018-08-11T09:36:28.489Z,21.83
2018-08-11T09:37:28.644Z,21.99
2018-08-11T09:38:28.544Z,21.91
2018-08-11T09:39:28.488Z,22.09
2018-08-11T09:40:28.451Z,22.09
2018-08-11T09:41:28.443Z,22.14
2018-08-11T09:42:28.428Z,22.14
2018-08-11T09:43:28.414Z,22.20
2018-08-11T09:44:28.432Z,22.25
2018-08-11T09:45:28.396Z,22.52
2018-08-11T09:46:28.382Z,22.53
2018-08-11T09:47:28.370Z,22.62
2018-08-11T09:48:28.363Z,22.71
2018-08-11T09:49:28.379Z,22.87
2018-08-11T09:50:28.344Z,23.01
2018-08-11T09:51:28.330Z,23.14
2018-08-11T09:52:28.319Z,23.12
2018-08-11T09:53:28.315Z,23.02
2018-08-11T09:54:28.331Z,22.92
2018-08-11T09:55:28.290Z,22.80
2018-08-11T09:56:28.282Z,22.62
2018-08-11T09:57:28.262Z,22.47
2018-08-11T09:58:28.259Z,22.28
2018-08-11T09:59:28.238Z,22.27
2018-08-11T10:00:28.260Z,22.06
2018-08-11T10:01:28.224Z,21.90
2018-08-11T10:02:28.206Z,21.98
2018-08-11T10:03:28.204Z,21.85
2018-08-11T10:04:28.187Z,21.94
2018-08-11T10:05:28.179Z,21.97
2018-08-11T10:06:28.193Z,22.10
2018-08-11T10:07:28.154Z,22.20
2018-08-11T10:08:28.146Z,22.49
2018-08-11T10:09:28.132Z,22.64
2018-08-11T10:10:28.130Z,22.71
2018-08-11T10:11:28.139Z,22.78
2018-08-11T10:12:28.095Z,22.99
2018-08-11T10:13:28.096Z,22.96
2018-08-11T10:14:28.080Z,23.15
2018-08-11T10:15:28.069Z,22.94
2018-08-11T10:16:28.093Z,22.87
2018-08-11T10:17:28.047Z,22.99
2018-08-11T10:18:28.663Z,22.75
2018-08-11T10:19:28.026Z,22.69
2018-08-11T10:20:28.011Z,22.69
2018-08-11T10:21:28.008Z,22.69
2018-08-11T10:22:28.017Z,22.69
2018-08-11T10:23:27.980Z,22.82
2018-08-11T10:24:27.974Z,22.57
2018-08-11T10:25:27.955Z,22.49
2018-08-11T10:26:27.952Z,22.59
2018-08-11T10:27:27.965Z,22.43
2018-08-11T10:28:27.931Z,22.16
2018-08-11T10:29:27.910Z,22.09
2018-08-11T10:30:27.902Z,22.20
2018-08-11T10:31:27.892Z,22.01
2018-08-11T10:32:27.884Z,22.01
2018-08-11T10:33:27.899Z,21.98
2018-08-11T10:34:27.855Z,22.04
2018-08-11T10:35:27.856Z,22.20
2018-08-11T10:36:27.843Z,22.31
2018-08-11T10:37:27.856Z,22.41
2018-08-11T10:38:27.821Z,22.65
2018-08-11T10:39:27.800Z,22.87
2018-08-11T10:40:27.792Z,22.89
2018-08-11T10:41:27.789Z,22.94
2018-08-11T10:42:27.774Z,22.96
2018-08-11T10:43:27.782Z,22.97
2018-08-11T10:44:27.753Z,22.90
2018-08-11T10:45:27.737Z,22.84
2018-08-11T10:46:27.731Z,22.74
2018-08-11T10:47:27.717Z,22.67
2018-08-11T10:48:27.745Z,22.59
2018-08-11T10:49:27.697Z,22.46
2018-08-11T10:50:27.683Z,22.31
2018-08-11T10:51:27.675Z,22.25
2018-08-11T10:52:27.657Z,22.37
2018-08-11T10:53:27.655Z,22.38
2018-08-11T10:54:27.664Z,22.60
2018-08-11T10:55:27.629Z,22.56
2018-08-11T10:56:27.617Z,22.69
2018-08-11T10:57:27.609Z,22.82
2018-08-11T10:58:27.600Z,23.08
2018-08-11T10:59:27.604Z,23.35
2018-08-11T11:00:27.573Z,23.57
2018-08-11T11:01:27.574Z,23.58
2018-08-11T11:02:27.560Z,23.98
2018-08-11T11:03:27.539Z,24.16
2018-08-11T11:04:27.566Z,24.04
2018-08-11T11:05:27.521Z,24.24
2018-08-11T11:06:27.507Z,24.24
2018-08-11T11:07:27.505Z,24.32
2018-08-11T11:08:27.555Z,24.42
2018-08-11T11:09:27.480Z,24.34
2018-08-11T11:10:27.496Z,24.52
2018-08-11T11:11:27.455Z,24.64
2018-08-11T11:12:27.451Z,24.60
2018-08-11T11:13:27.436Z,24.60
2018-08-11T11:14:27.432Z,24.49
2018-08-11T11:15:27.447Z,24.34
2018-08-11T11:16:27.407Z,24.08
2018-08-11T11:17:27.394Z,24.07
2018-08-11T11:18:27.381Z,24.13
2018-08-11T11:19:27.381Z,24.38
2018-08-11T11:20:27.362Z,24.37
2018-08-11T11:21:27.378Z,24.59
2018-08-11T11:22:27.347Z,24.59
2018-08-11T11:23:27.327Z,24.68
2018-08-11T11:24:27.322Z,24.94
2018-08-11T11:25:27.309Z,25.06
2018-08-11T11:26:27.317Z,25.22
2018-08-11T11:27:27.298Z,25.27
2018-08-11T11:28:27.284Z,25.47
2018-08-11T11:29:27.273Z,25.65
2018-08-11T11:30:27.266Z,25.84
2018-08-11T11:31:27.281Z,25.87
2018-08-11T11:32:27.240Z,25.86
2018-08-11T11:33:27.234Z,25.91
2018-08-11T11:34:27.219Z,26.01
2018-08-11T11:35:27.212Z,26.17
2018-08-11T11:36:27.198Z,26.22
2018-08-11T11:37:27.214Z,26.32
2018-08-11T11:38:27.184Z,26.50
2018-08-11T11:39:27.178Z,26.62
2018-08-11T11:40:27.163Z,26.76
2018-08-11T11:41:27.154Z,26.62
2018-08-11T11:42:27.172Z,26.36
2018-08-11T11:43:27.244Z,25.59
2018-08-11T11:44:27.122Z,25.10
2018-08-11T11:45:27.111Z,24.57
2018-08-11T11:46:27.124Z,24.42
2018-08-11T11:47:27.089Z,24.47
2018-08-11T11:48:27.102Z,24.13
2018-08-11T11:49:27.066Z,23.97
2018-08-11T11:50:27.121Z,23.80
2018-08-11T11:51:27.142Z,23.83
2018-08-11T11:52:27.041Z,23.82
2018-08-11T11:53:27.782Z,23.87
2018-08-11T11:54:27.163Z,24.08
2018-08-11T11:55:27.005Z,23.87
2018-08-11T11:56:27.006Z,24.00
2018-08-11T11:57:26.980Z,24.07
2018-08-11T11:58:26.996Z,24.13
2018-08-11T11:59:26.959Z,24.44
2018-08-11T12:00:26.947Z,24.76
2018-08-11T12:01:26.940Z,24.98
2018-08-11T12:02:26.926Z,25.30
2018-08-11T12:03:26.943Z,25.56
2018-08-11T12:04:26.911Z,25.79
2018-08-11T12:05:27.194Z,25.98
2018-08-11T12:06:26.936Z,26.20
2018-08-11T12:07:26.871Z,26.47
2018-08-11T12:08:27.016Z,26.73
2018-08-11T12:09:26.943Z,26.81
2018-08-11T12:10:26.927Z,26.77
2018-08-11T12:11:26.832Z,26.81
2018-08-11T12:12:26.876Z,26.76
2018-08-11T12:13:26.831Z,26.77
2018-08-11T12:14:26.806Z,26.68
2018-08-11T12:15:26.791Z,26.79
2018-08-11T12:16:26.838Z,26.52
2018-08-11T12:17:26.775Z,26.22
2018-08-11T12:18:26.787Z,26.21
2018-08-11T12:19:26.821Z,25.98
2018-08-11T12:20:26.803Z,25.64
2018-08-11T12:21:26.770Z,25.53
2018-08-11T12:22:26.777Z,25.53
2018-08-11T12:23:26.705Z,25.80
2018-08-11T12:24:26.811Z,25.86
2018-08-11T12:25:26.689Z,26.08
2018-08-11T12:26:26.675Z,26.20
2018-08-11T12:27:26.664Z,26.36
2018-08-11T12:28:26.666Z,26.43
2018-08-11T12:29:27.501Z,26.32
2018-08-11T12:30:26.737Z,26.31
2018-08-11T12:31:26.676Z,26.18
2018-08-11T12:32:26.650Z,26.06
2018-08-11T12:33:26.645Z,25.86
2018-08-11T12:34:26.630Z,25.72
2018-08-11T12:35:26.759Z,25.53
2018-08-11T12:36:26.576Z,25.61
2018-08-11T12:37:26.561Z,25.39
2018-08-11T12:38:26.637Z,25.39
2018-08-11T12:39:26.605Z,25.49
2018-08-11T12:40:26.561Z,25.47
2018-08-11T12:41:26.549Z,25.53
2018-08-11T12:42:27.122Z,25.67
2018-08-11T12:43:26.906Z,25.72
2018-08-11T12:44:26.482Z,25.79
2018-08-11T12:45:26.854Z,26.01
2018-08-11T12:46:26.515Z,26.25
2018-08-11T12:47:26.494Z,26.46
2018-08-11T12:48:26.466Z,26.79
2018-08-11T12:49:26.446Z,27.02
2018-08-11T12:50:26.418Z,26.98
2018-08-11T12:51:27.057Z,27.35
2018-08-11T12:52:26.420Z,27.54